createdAt,value
2023-04-21T00:01:01.144Z,101544.44
2023-04-21T00:03:28.945Z,101551.69
2023-04-21T00:05:58.613Z,101547.34
2023-04-21T00:08:28.811Z,101543.69
2023-04-21T00:10:56.016Z,101549.88
2023-04-21T00:13:23.840Z,101552.78
2023-04-21T00:15:51.153Z,101559.22
2023-04-21T00:18:18.304Z,101556.97
2023-04-21T00:20:45.316Z,101554.97
2023-04-21T00:23:12.395Z,101560.56
2023-04-21T00:25:39.400Z,101540.25
2023-04-21T00:28:06.421Z,101555.88
2023-04-21T00:30:37.125Z,101552.03
2023-04-21T00:33:05.115Z,101540.34
2023-04-21T00:35:32.236Z,101537.50
2023-04-21T00:37:59.422Z,101543.47
2023-04-21T00:40:26.806Z,101540.88
2023-04-21T00:42:53.790Z,101537.16
2023-04-21T00:45:21.331Z,101541.34
2023-04-21T00:47:48.585Z,101538.28
2023-04-21T00:50:15.736Z,101539.31
2023-04-21T00:52:44.689Z,101536.06
2023-04-21T00:55:11.925Z,101532.41
2023-04-21T00:57:39.039Z,101527.06
2023-04-21T01:00:08.774Z,101525.88
2023-04-21T01:02:38.828Z,101527.94
2023-04-21T01:05:09.121Z,101518.34
2023-04-21T01:07:39.023Z,101525.56
2023-04-21T01:10:06.908Z,101527.66
2023-04-21T01:12:35.782Z,101529.72
2023-04-21T01:15:02.927Z,101525.41
2023-04-21T01:17:31.314Z,101533.66
2023-04-21T01:20:02.249Z,101521.53
2023-04-21T01:22:30.201Z,101522.13
2023-04-21T01:24:57.855Z,101529.56
2023-04-21T01:27:26.838Z,101524.81
2023-04-21T01:29:54.408Z,101521.31
2023-04-21T01:32:29.036Z,101523.78
2023-04-21T01:34:58.127Z,101517.81
2023-04-21T01:37:29.931Z,101526.66
2023-04-21T01:40:00.541Z,101520.50
2023-04-21T01:42:29.831Z,101518.63
2023-04-21T01:44:59.775Z,101510.81
2023-04-21T01:47:27.105Z,101507.75
2023-04-21T01:49:54.099Z,101512.69
2023-04-21T01:52:21.713Z,101508.81
2023-04-21T01:54:49.021Z,101512.91
2023-04-21T01:57:17.451Z,101510.06
2023-04-21T01:59:44.850Z,101510.88
2023-04-21T02:02:12.167Z,101513.56
2023-04-21T02:04:39.482Z,101507.63
2023-04-21T02:07:06.785Z,101507.81
2023-04-21T02:09:33.814Z,101498.59
2023-04-21T02:12:02.024Z,101504.53
2023-04-21T02:14:29.148Z,101492.41
2023-04-21T02:16:56.326Z,101498.81
2023-04-21T02:19:24.133Z,101502.75
2023-04-21T02:21:51.525Z,101501.13
2023-04-21T02:24:22.139Z,101494.56
2023-04-21T02:26:49.528Z,101495.00
2023-04-21T02:29:16.815Z,101495.47
2023-04-21T02:31:54.635Z,101492.78
2023-04-21T02:34:26.753Z,101499.63
2023-04-21T02:36:53.895Z,101501.94
2023-04-21T02:39:21.014Z,101504.63
2023-04-21T02:41:48.227Z,101505.66
2023-04-21T02:44:16.205Z,101505.88
2023-04-21T02:46:43.781Z,101502.00
2023-04-21T02:49:11.375Z,101501.41
2023-04-21T02:51:38.329Z,101500.59
2023-04-21T02:54:06.152Z,101495.47
2023-04-21T02:56:34.681Z,101497.53
2023-04-21T02:59:01.914Z,101499.16
2023-04-21T03:01:28.931Z,101493.22
2023-04-21T03:03:56.372Z,101503.13
2023-04-21T03:06:23.711Z,101504.16
2023-04-21T03:08:50.914Z,101501.47
2023-04-21T03:11:17.731Z,101497.38
2023-04-21T03:13:46.054Z,101497.38
2023-04-21T03:16:13.465Z,101490.59
2023-04-21T03:18:40.699Z,101484.88
2023-04-21T03:21:07.787Z,101487.34
2023-04-21T03:23:36.076Z,101490.69
2023-04-21T03:26:07.950Z,101491.28
2023-04-21T03:28:35.439Z,101493.81
2023-04-21T03:31:03.284Z,101483.75
2023-04-21T03:33:30.163Z,101493.44
2023-04-21T03:35:57.161Z,101494.09
2023-04-21T03:38:24.074Z,101489.56
2023-04-21T03:40:51.175Z,101493.88
2023-04-21T03:43:19.138Z,101487.75
2023-04-21T03:45:46.258Z,101497.22
2023-04-21T03:48:13.531Z,101497.66
2023-04-21T03:50:40.593Z,101496.44
2023-04-21T03:53:07.560Z,101498.53
2023-04-21T03:55:34.623Z,101482.09
2023-04-21T03:58:01.490Z,101504.31
2023-04-21T04:00:28.566Z,101495.69
2023-04-21T04:02:55.580Z,101500.22
2023-04-21T04:05:22.837Z,101500.66
2023-04-21T04:07:49.799Z,101499.81
2023-04-21T04:10:16.790Z,101506.19
2023-04-21T04:12:43.676Z,101500.03
2023-04-21T04:15:10.985Z,101508.06
2023-04-21T04:17:37.949Z,101506.41
2023-04-21T04:20:08.375Z,101503.97
2023-04-21T04:22:35.728Z,101507.25
2023-04-21T04:25:02.778Z,101512.59
2023-04-21T04:27:29.793Z,101509.09
2023-04-21T04:29:57.807Z,101508.88
2023-04-21T04:32:28.862Z,101507.25
2023-04-21T04:34:56.069Z,101508.28
2023-04-21T04:37:23.059Z,101513.19
2023-04-21T04:39:53.801Z,101515.88
2023-04-21T04:42:20.954Z,101522.69
2023-04-21T04:44:48.153Z,101516.06
2023-04-21T04:47:15.224Z,101512.56
2023-04-21T04:49:42.095Z,101527.16
2023-04-21T04:52:08.986Z,101526.94
2023-04-21T04:54:36.293Z,101522.19
2023-04-21T04:57:03.348Z,101509.41
2023-04-21T04:59:31.151Z,101522.56
2023-04-21T05:01:58.530Z,101522.94
2023-04-21T05:04:26.321Z,101523.09
2023-04-21T05:06:53.937Z,101524.06
2023-04-21T05:09:20.889Z,101529.00
2023-04-21T05:11:47.857Z,101529.59
2023-04-21T05:14:14.678Z,101533.03
2023-04-21T05:16:44.149Z,101527.22
2023-04-21T05:19:11.084Z,101527.38
2023-04-21T05:21:38.152Z,101528.56
2023-04-21T05:24:05.372Z,101529.75
2023-04-21T05:26:32.363Z,101536.69
2023-04-21T05:28:59.333Z,101517.50
2023-04-21T05:31:26.992Z,101513.91
2023-04-21T05:33:53.930Z,101516.75
2023-04-21T05:36:21.109Z,101512.16
2023-04-21T05:38:47.968Z,101528.97
2023-04-21T05:41:15.902Z,101521.91
2023-04-21T05:43:42.797Z,101524.53
2023-04-21T05:46:13.509Z,101526.31
2023-04-21T05:48:40.535Z,101522.50
2023-04-21T05:51:12.310Z,101524.66
2023-04-21T05:53:40.184Z,101517.78
2023-04-21T05:56:09.674Z,101526.34
2023-04-21T05:58:37.554Z,101514.69
2023-04-21T06:01:06.653Z,101513.91
2023-04-21T06:03:34.384Z,101515.91
2023-04-21T06:06:04.503Z,101509.78
2023-04-21T06:08:32.558Z,101518.31
2023-04-21T06:10:59.808Z,101504.22
2023-04-21T06:13:27.779Z,101514.16
2023-04-21T06:15:55.638Z,101514.03
2023-04-21T06:18:24.025Z,101511.84
2023-04-21T06:20:52.361Z,101502.38
2023-04-21T06:23:19.312Z,101497.34
2023-04-21T06:25:46.641Z,101496.00
2023-04-21T06:28:13.859Z,101497.50
2023-04-21T06:30:40.971Z,101498.31
2023-04-21T06:33:08.035Z,101503.13
2023-04-21T06:35:35.132Z,101504.41
2023-04-21T06:38:02.501Z,101499.13
2023-04-21T06:40:29.416Z,101499.09
2023-04-21T06:42:56.344Z,101493.34
2023-04-21T06:45:23.512Z,101496.59
2023-04-21T06:47:51.066Z,101500.06
2023-04-21T06:50:18.265Z,101490.53
2023-04-21T06:52:45.384Z,101488.06
2023-04-21T06:55:12.436Z,101489.94
2023-04-21T06:57:39.377Z,101482.84
2023-04-21T07:00:07.339Z,101475.78
2023-04-21T07:02:34.323Z,101485.97
2023-04-21T07:05:01.617Z,101480.50
2023-04-21T07:07:28.688Z,101483.47
2023-04-21T07:09:56.032Z,101469.00
2023-04-21T07:12:23.185Z,101476.09
2023-04-21T07:14:51.234Z,101474.72
2023-04-21T07:17:18.162Z,101462.75
2023-04-21T07:19:45.141Z,101479.47
2023-04-21T07:22:12.097Z,101472.38
2023-04-21T07:24:39.515Z,101468.50
2023-04-21T07:27:06.623Z,101475.44
2023-04-21T07:29:33.694Z,101463.25
2023-04-21T07:32:00.730Z,101461.00
2023-04-21T07:34:27.596Z,101460.38
2023-04-21T07:36:56.476Z,101462.25
2023-04-21T07:39:23.450Z,101462.97
2023-04-21T07:41:50.764Z,101468.78
2023-04-21T07:44:17.838Z,101467.63
2023-04-21T07:46:45.102Z,101452.28
2023-04-21T07:49:12.055Z,101459.97
2023-04-21T07:51:40.226Z,101448.94
2023-04-21T07:54:07.291Z,101454.69
2023-04-21T07:56:34.612Z,101454.16
2023-04-21T07:59:01.787Z,101448.47
2023-04-21T08:01:28.666Z,101449.25
2023-04-21T08:03:55.699Z,101442.66
2023-04-21T08:06:22.936Z,101439.56
2023-04-21T08:08:50.340Z,101438.59
2023-04-21T08:11:17.495Z,101438.97
2023-04-21T08:13:44.493Z,101444.69
2023-04-21T08:16:11.552Z,101444.19
2023-04-21T08:18:38.507Z,101434.84
2023-04-21T08:21:05.989Z,101431.72
2023-04-21T08:23:32.977Z,101416.81
2023-04-21T08:26:01.705Z,101413.34
2023-04-21T08:28:28.641Z,101415.84
2023-04-21T08:30:55.642Z,101412.38
2023-04-21T08:33:22.569Z,101414.28
2023-04-21T08:36:02.376Z,101412.69
2023-04-21T08:38:33.189Z,101413.59
2023-04-21T08:41:00.380Z,101402.81
2023-04-21T08:43:30.406Z,101402.31
2023-04-21T08:46:00.031Z,101411.09
2023-04-21T08:48:29.898Z,101414.88
2023-04-21T08:50:57.987Z,101414.03
2023-04-21T08:53:25.529Z,101408.53
2023-04-21T08:56:09.989Z,101396.00
2023-04-21T08:58:38.636Z,101397.63
2023-04-21T09:01:06.039Z,101400.66
2023-04-21T09:03:33.355Z,101400.53
2023-04-21T09:06:06.531Z,101398.44
2023-04-21T09:08:40.089Z,101400.00
2023-04-21T09:11:07.366Z,101387.84
2023-04-21T09:13:36.603Z,101389.38
2023-04-21T09:16:16.589Z,101380.78
2023-04-21T09:18:44.748Z,101389.44
2023-04-21T09:21:17.829Z,101385.25
2023-04-21T09:23:51.183Z,101382.69
2023-04-21T09:26:21.286Z,101383.81
2023-04-21T09:28:50.668Z,101376.72
2023-04-21T09:31:24.600Z,101382.59
2023-04-21T09:34:00.088Z,101380.94
2023-04-21T09:36:32.057Z,101372.28
2023-04-21T09:41:37.344Z,101369.56
2023-04-21T09:44:04.983Z,101371.34
2023-04-21T09:46:37.357Z,101371.03
2023-04-21T09:49:05.830Z,101361.91
2023-04-21T09:56:50.463Z,101352.00
2023-04-21T09:59:27.545Z,101362.31
2023-04-21T10:01:58.174Z,101360.72
2023-04-21T10:04:26.688Z,101353.84
2023-04-21T10:06:55.819Z,101360.91
2023-04-21T10:09:25.754Z,101353.91
2023-04-21T10:11:55.471Z,101349.22
2023-04-21T10:14:22.648Z,101342.94
2023-04-21T10:17:07.782Z,101346.31
2023-04-21T10:19:40.605Z,101342.75
2023-04-21T10:22:11.632Z,101327.06
2023-04-21T10:24:43.010Z,101329.28
2023-04-21T10:27:12.045Z,101338.31
2023-04-21T10:29:55.711Z,101334.91
2023-04-21T10:32:43.421Z,101320.59
2023-04-21T10:35:22.540Z,101322.78
2023-04-21T10:37:53.750Z,101321.41
2023-04-21T10:40:47.203Z,101316.78
2023-04-21T10:43:49.337Z,101316.13
2023-04-21T10:46:49.689Z,101309.22
2023-04-21T10:49:32.530Z,101308.56
2023-04-21T10:51:59.741Z,101305.66
2023-04-21T10:54:29.823Z,101308.19
2023-04-21T10:56:59.236Z,101306.28
2023-04-21T10:59:29.242Z,101301.63
2023-04-21T11:01:57.352Z,101280.50
2023-04-21T11:04:25.185Z,101281.78
2023-04-21T11:07:13.679Z,101290.06
2023-04-21T11:09:42.953Z,101282.88
2023-04-21T11:12:18.286Z,101277.38
2023-04-21T11:14:49.888Z,101270.06
2023-04-21T11:17:20.146Z,101264.06
2023-04-21T11:19:51.788Z,101252.56
2023-04-21T11:22:23.409Z,101256.38
2023-04-21T11:24:54.320Z,101253.63
2023-04-21T11:27:24.866Z,101266.47
2023-04-21T11:29:51.835Z,101256.69
2023-04-21T11:32:19.156Z,101260.28
2023-04-21T11:34:46.576Z,101255.69
2023-04-21T11:37:30.028Z,101245.81
2023-04-21T11:39:59.544Z,101235.44
2023-04-21T11:42:27.194Z,101244.41
2023-04-21T11:44:56.792Z,101234.47
2023-04-21T11:47:26.325Z,101233.78
2023-04-21T11:49:59.414Z,101228.56
2023-04-21T11:52:28.124Z,101228.03
2023-04-21T11:55:00.404Z,101215.13
2023-04-21T11:57:29.744Z,101227.06
2023-04-21T12:00:08.469Z,101226.31
2023-04-21T12:02:35.986Z,101217.50
2023-04-21T12:05:07.564Z,101220.03
2023-04-21T12:07:37.912Z,101223.47
2023-04-21T12:10:22.379Z,101215.41
2023-04-21T12:12:49.483Z,101215.09
2023-04-21T12:15:22.829Z,101216.50
2023-04-21T12:17:54.744Z,101217.72
2023-04-21T12:20:24.368Z,101216.09
2023-04-21T12:22:52.362Z,101210.34
2023-04-21T12:25:19.895Z,101214.88
2023-04-21T12:27:58.283Z,101212.16
2023-04-21T12:30:25.517Z,101203.44
2023-04-21T12:32:54.218Z,101193.03
2023-04-21T12:35:23.142Z,101197.38
2023-04-21T12:37:50.140Z,101205.25
2023-04-21T12:40:17.105Z,101197.38
2023-04-21T12:42:44.228Z,101200.75
2023-04-21T12:45:11.657Z,101195.50
2023-04-21T12:47:39.301Z,101191.94
2023-04-21T12:50:07.162Z,101198.03
2023-04-21T12:52:34.258Z,101181.19
2023-04-21T12:55:01.312Z,101177.66
2023-04-21T12:57:28.858Z,101173.09
2023-04-21T12:59:55.946Z,101178.22
2023-04-21T13:02:23.064Z,101165.97
2023-04-21T13:04:50.243Z,101166.41
2023-04-21T13:07:21.127Z,101171.78
2023-04-21T13:09:48.148Z,101169.97
2023-04-21T13:12:15.123Z,101170.75
2023-04-21T13:14:42.053Z,101167.72
2023-04-21T13:17:09.444Z,101156.84
2023-04-21T13:19:36.475Z,101163.28
2023-04-21T13:22:03.435Z,101163.69
2023-04-21T13:24:31.008Z,101160.41
2023-04-21T13:26:58.865Z,101139.06
2023-04-21T13:29:30.253Z,101142.56
2023-04-21T13:31:57.366Z,101144.72
2023-04-21T13:34:24.521Z,101136.88
2023-04-21T13:36:51.591Z,101142.53
2023-04-21T13:39:18.476Z,101124.66
2023-04-21T13:41:45.402Z,101140.13
2023-04-21T13:44:12.424Z,101128.50
2023-04-21T13:46:39.424Z,101138.44
2023-04-21T13:49:06.632Z,101132.09
2023-04-21T13:51:34.195Z,101130.47
2023-04-21T13:54:01.144Z,101134.63
2023-04-21T13:56:28.241Z,101130.75
2023-04-21T13:58:55.889Z,101119.97
2023-04-21T14:01:23.106Z,101123.53
2023-04-21T14:03:50.177Z,101117.19
2023-04-21T14:06:17.672Z,101112.38
2023-04-21T14:08:44.641Z,101104.38
2023-04-21T14:11:11.588Z,101100.34
2023-04-21T14:13:47.759Z,101102.34
2023-04-21T14:16:19.318Z,101091.59
2023-04-21T14:18:47.415Z,101096.38
2023-04-21T14:21:14.538Z,101093.00
2023-04-21T14:23:41.717Z,101089.91
2023-04-21T14:26:08.936Z,101081.59
2023-04-21T14:28:35.908Z,101074.03
2023-04-21T14:31:04.188Z,101078.44
2023-04-21T14:33:33.102Z,101082.81
2023-04-21T14:36:00.782Z,101073.63
2023-04-21T14:38:29.607Z,101075.19
2023-04-21T14:40:56.866Z,101061.22
2023-04-21T14:43:23.966Z,101062.00
2023-04-21T14:45:51.095Z,101056.81
2023-04-21T14:48:18.555Z,101062.03
2023-04-21T14:50:45.680Z,101065.63
2023-04-21T14:53:12.659Z,101060.78
2023-04-21T14:55:39.514Z,101050.81
2023-04-21T14:58:07.338Z,101037.66
2023-04-21T15:00:36.335Z,101046.84
2023-04-21T15:03:03.597Z,101040.88
2023-04-21T15:05:30.779Z,101026.56
2023-04-21T15:07:57.642Z,101033.78
2023-04-21T15:10:24.545Z,101042.19
2023-04-21T15:12:51.573Z,101039.81
2023-04-21T15:15:19.148Z,101035.81
2023-04-21T15:17:46.085Z,101033.03
2023-04-21T15:20:13.308Z,101034.59
2023-04-21T15:22:40.259Z,101033.41
2023-04-21T15:25:07.661Z,101021.88
2023-04-21T15:27:34.789Z,101028.63
2023-04-21T15:30:04.092Z,101029.72
2023-04-21T15:32:31.084Z,101025.63
2023-04-21T15:34:58.030Z,101021.13
2023-04-21T15:37:25.930Z,101011.78
2023-04-21T15:39:53.151Z,101018.72
2023-04-21T15:42:20.636Z,101017.66
2023-04-21T15:44:47.745Z,101012.22
2023-04-21T15:47:17.054Z,101017.13
2023-04-21T15:49:44.018Z,101012.47
2023-04-21T15:52:11.216Z,101012.03
2023-04-21T15:54:38.516Z,101014.09
2023-04-21T15:57:05.875Z,101011.28
2023-04-21T15:59:32.999Z,101013.22
2023-04-21T16:02:00.216Z,101011.09
2023-04-21T16:04:27.406Z,101010.66
2023-04-21T16:06:54.655Z,101008.84
2023-04-21T16:09:21.719Z,101013.34
2023-04-21T16:11:52.451Z,101010.81
2023-04-21T16:14:19.560Z,101005.75
2023-04-21T16:16:46.610Z,101010.34
2023-04-21T16:19:13.804Z,101003.78
2023-04-21T16:21:41.959Z,100998.31
2023-04-21T16:24:09.228Z,101000.75
2023-04-21T16:26:36.880Z,100996.44
2023-04-21T16:29:03.992Z,100992.38
2023-04-21T16:31:31.349Z,101000.13
2023-04-21T16:34:00.105Z,101003.16
2023-04-21T16:36:34.134Z,100997.69
2023-04-21T16:39:01.182Z,101002.50
2023-04-21T16:41:28.093Z,100995.13
2023-04-21T16:43:55.178Z,100997.28
2023-04-21T16:46:22.275Z,100994.50
2023-04-21T16:48:49.372Z,100991.16
2023-04-21T16:51:17.159Z,100994.81
2023-04-21T16:53:44.171Z,100993.75
2023-04-21T16:56:11.121Z,101004.75
2023-04-21T16:58:38.130Z,100996.69
2023-04-21T17:01:07.783Z,100991.81
2023-04-21T17:03:35.150Z,100993.97
2023-04-21T17:06:05.079Z,100991.94
2023-04-21T17:08:32.007Z,100994.34
2023-04-21T17:11:00.019Z,101007.22
2023-04-21T17:13:27.257Z,101006.16
2023-04-21T17:15:54.253Z,101000.78
2023-04-21T17:18:21.330Z,101008.41
2023-04-21T17:20:48.529Z,101003.28
2023-04-21T17:23:15.659Z,101001.84
2023-04-21T17:25:42.671Z,101002.13
2023-04-21T17:28:09.616Z,101012.72
2023-04-21T17:30:36.612Z,101015.13
2023-04-21T17:33:15.424Z,101004.22
2023-04-21T17:35:52.456Z,101010.44
2023-04-21T17:38:29.414Z,101010.03
2023-04-21T17:40:56.393Z,101006.91
2023-04-21T17:43:23.486Z,101025.94
2023-04-21T17:45:51.264Z,101019.72
2023-04-21T17:48:18.623Z,101008.69
2023-04-21T17:50:45.814Z,101018.13
2023-04-21T17:53:12.921Z,101015.13
2023-04-21T17:55:42.663Z,101011.03
2023-04-21T17:58:12.270Z,101011.75
2023-04-21T18:00:40.162Z,101017.94
2023-04-21T18:03:07.368Z,101013.00
2023-04-21T18:05:34.926Z,101017.78
2023-04-21T18:08:02.242Z,101016.03
2023-04-21T18:10:29.885Z,101014.38
2023-04-21T18:12:58.147Z,101022.31
2023-04-21T18:15:25.118Z,101019.50
2023-04-21T18:17:53.056Z,101022.91
2023-04-21T18:20:20.647Z,101028.44
2023-04-21T18:22:50.105Z,101039.94
2023-04-21T18:25:27.362Z,101023.81
2023-04-21T18:28:01.554Z,101034.22
2023-04-21T18:30:28.526Z,101041.59
2023-04-21T18:32:55.656Z,101043.28
2023-04-21T18:35:22.855Z,101040.94
2023-04-21T18:37:49.782Z,101036.69
2023-04-21T18:40:16.959Z,101031.59
2023-04-21T18:42:43.830Z,101031.66
2023-04-21T18:45:11.451Z,101035.75
2023-04-21T18:47:39.224Z,101040.41
2023-04-21T18:50:08.647Z,101034.50
2023-04-21T18:52:35.633Z,101042.94
2023-04-21T18:55:02.751Z,101044.06
2023-04-21T18:57:30.451Z,101038.94
2023-04-21T18:59:57.354Z,101043.56
2023-04-21T19:02:24.758Z,101040.88
2023-04-21T19:04:52.454Z,101035.22
2023-04-21T19:07:19.571Z,101036.03
2023-04-21T19:09:46.684Z,101039.59
2023-04-21T19:12:14.393Z,101037.94
2023-04-21T19:14:47.266Z,101046.88
2023-04-21T19:17:15.526Z,101044.19
2023-04-21T19:19:42.736Z,101039.06
2023-04-21T19:22:09.703Z,101046.34
2023-04-21T19:24:36.870Z,101040.97
2023-04-21T19:27:06.159Z,101038.53
2023-04-21T19:29:33.549Z,101045.25
2023-04-21T19:32:00.634Z,101033.34
2023-04-21T19:34:27.894Z,101049.84
2023-04-21T19:36:54.908Z,101038.47
2023-04-21T19:39:21.895Z,101039.53
2023-04-21T19:41:48.844Z,101039.50
2023-04-21T19:44:15.917Z,101044.63
2023-04-21T19:46:43.449Z,101046.50
2023-04-21T19:49:14.085Z,101037.84
2023-04-21T19:51:41.410Z,101057.81
2023-04-21T19:54:12.194Z,101045.63
2023-04-21T19:56:40.151Z,101041.28
2023-04-21T19:59:07.733Z,101038.28
2023-04-21T20:01:34.858Z,101044.72
2023-04-21T20:04:03.292Z,101045.25
2023-04-21T20:06:31.604Z,101048.75
2023-04-21T20:08:58.792Z,101049.53
2023-04-21T20:11:28.814Z,101041.16
2023-04-21T20:13:56.187Z,101043.00
2023-04-21T20:16:23.735Z,101040.81
2023-04-21T20:18:50.765Z,101045.06
2023-04-21T20:21:17.839Z,101045.59
2023-04-21T20:23:44.848Z,101052.31
2023-04-21T20:26:12.089Z,101048.78
2023-04-21T20:28:39.091Z,101063.88
2023-04-21T20:31:06.322Z,101056.00
2023-04-21T20:33:33.323Z,101048.66
2023-04-21T20:36:07.294Z,101060.53
2023-04-21T20:38:35.332Z,101055.09
2023-04-21T20:41:03.148Z,101063.16
2023-04-21T20:43:33.061Z,101059.59
2023-04-21T20:46:01.657Z,101059.03
2023-04-21T20:48:28.653Z,101068.16
2023-04-21T20:50:55.970Z,101058.69
2023-04-21T20:53:23.911Z,101069.13
2023-04-21T20:55:51.111Z,101052.63
2023-04-21T20:58:18.024Z,101062.59
2023-04-21T21:00:45.488Z,101076.03
2023-04-21T21:03:13.786Z,101074.88
2023-04-21T21:05:41.411Z,101072.13
2023-04-21T21:08:09.090Z,101066.13
2023-04-21T21:10:36.234Z,101073.66
2023-04-21T21:13:04.370Z,101072.53
2023-04-21T21:15:31.496Z,101068.19
2023-04-21T21:17:58.858Z,101066.75
2023-04-21T21:20:26.192Z,101082.91
2023-04-21T21:22:53.202Z,101080.97
2023-04-21T21:25:20.509Z,101078.25
2023-04-21T21:27:47.473Z,101070.09
2023-04-21T21:30:14.810Z,101065.72
2023-04-21T21:32:41.811Z,101071.63
2023-04-21T21:35:10.227Z,101073.44
2023-04-21T21:37:38.289Z,101077.44
2023-04-21T21:40:07.206Z,101076.84
2023-04-21T21:42:34.533Z,101079.78
2023-04-21T21:45:01.604Z,101082.16
2023-04-21T21:47:28.773Z,101081.28
2023-04-21T21:49:58.616Z,101079.31
2023-04-21T21:52:26.352Z,101078.41
2023-04-21T21:54:53.887Z,101082.41
2023-04-21T21:57:21.754Z,101085.03
2023-04-21T21:59:49.128Z,101083.34
2023-04-21T22:02:16.686Z,101078.38
2023-04-21T22:04:44.018Z,101081.09
2023-04-21T22:07:11.157Z,101070.75
2023-04-21T22:09:39.772Z,101075.56
2023-04-21T22:12:07.447Z,101086.25
2023-04-21T22:14:34.947Z,101093.75
2023-04-21T22:17:02.867Z,101092.06
2023-04-21T22:19:30.988Z,101094.97
2023-04-21T22:21:58.049Z,101093.03
2023-04-21T22:24:25.449Z,101100.72
2023-04-21T22:26:52.416Z,101079.38
2023-04-21T22:29:19.543Z,101097.94
2023-04-21T22:31:47.195Z,101087.59
2023-04-21T22:34:16.631Z,101098.09
2023-04-21T22:36:43.661Z,101097.78
2023-04-21T22:39:10.927Z,101098.47
2023-04-21T22:41:39.108Z,101094.09
2023-04-21T22:44:07.142Z,101098.88
2023-04-21T22:46:34.466Z,101104.19
2023-04-21T22:49:03.202Z,101110.03
2023-04-21T22:51:32.529Z,101097.84
2023-04-21T22:54:00.376Z,101107.19
2023-04-21T22:56:30.065Z,101097.63
2023-04-21T22:58:57.633Z,101106.50
2023-04-21T23:01:24.701Z,101097.44
2023-04-21T23:03:51.840Z,101097.94
2023-04-21T23:06:19.292Z,101112.19
2023-04-21T23:08:46.420Z,101107.78
2023-04-21T23:11:14.137Z,101108.25
2023-04-21T23:13:41.941Z,101117.13
2023-04-21T23:16:08.947Z,101110.50
2023-04-21T23:18:36.071Z,101114.50
2023-04-21T23:21:03.064Z,101114.97
2023-04-21T23:23:29.988Z,101106.25
2023-04-21T23:25:56.911Z,101109.97
2023-04-21T23:28:24.348Z,101108.03
2023-04-21T23:30:51.360Z,101107.91
2023-04-21T23:33:18.724Z,101106.97
2023-04-21T23:35:45.962Z,101106.63
2023-04-21T23:38:12.984Z,101113.31
2023-04-21T23:40:40.118Z,101111.31
2023-04-21T23:43:07.498Z,101110.41
2023-04-21T23:45:34.770Z,101110.06
2023-04-21T23:48:01.772Z,101096.78
2023-04-21T23:50:29.092Z,101114.75
2023-04-21T23:52:56.683Z,101103.09
2023-04-21T23:55:23.884Z,101115.34
2023-04-21T23:57:51.068Z,101095.66
